RJOZ(METAR)
08/24 02:00
METAR RJOZ 231700Z VRB02KT 9999 FEW015 SCT030 BKN110 25/24 Q1009 RMK
1CU015 4CU030 7AC110 A2981=
戻る
トップページへ戻る
IMOC Co,.Ltd.